Shinkai Maru — JJ4012 — position and weather

sailwx.info

Track history (hours):
 
Tides and Currents Weather Stations Pressure Air Temp Water Temp Dewpoint Dewpoint Depression Visibility Wind Speed Wind Dir Waves Ship Positions

Shinkai Maru

Last reported at 2017-Apr-30 23:39 UTC. Time now 2017-May-01 02:31 UTC.
Position N 34°38' E 135°28'.

Length 76 m; draft 4.1 m.

Type: Cargo ship. MMSI: 431301346.

Date/timePositionNaut miles runAvg speedWind from/ knotsBaromVisibWave heightAir tempDewpointWater temp
2017-Apr-30 23:39N 34°38' E 135°28'0 0.3
2017-Apr-30 23:29N 34°38' E 135°28'1 1.5
2017-Apr-30 23:00N 34°39' E 135°27'3 6.0
2017-Apr-30 22:30N 34°38' E 135°23'2 2.6
2017-Apr-30 21:48N 34°37' E 135°22'0 0.1
2017-Apr-30 21:24N 34°37' E 135°22'0 0.0
2017-Apr-30 20:54N 34°37' E 135°22'0 0.0
2017-Apr-30 20:24N 34°37' E 135°22'0 0.1
2017-Apr-30 19:54N 34°37' E 135°22'0 0.0
2017-Apr-30 19:30N 34°37' E 135°22'0 0.0
2017-Apr-30 18:42N 34°37' E 135°22'0 0.0
2017-Apr-30 18:18N 34°37' E 135°22'0 0.0
2017-Apr-30 17:48N 34°37' E 135°22'0 0.0
2017-Apr-30 17:30N 34°37' E 135°22'0 0.0
2017-Apr-30 17:00N 34°37' E 135°22'0 0.0
2017-Apr-30 16:18N 34°37' E 135°22'0 0.0
2017-Apr-30 16:00N 34°37' E 135°22'0 0.0
2017-Apr-30 15:30N 34°37' E 135°22'0 0.0
2017-Apr-30 14:18N 34°37' E 135°22'5 6.0
2017-Apr-30 13:30N 34°34' E 135°17'612.1
2017-Apr-30 13:00N 34°29' E 135°12'612.2
2017-Apr-30 12:30N 34°25' E 135°07'713.0
2017-Apr-30 11:59N 34°20' E 135°02'612.6
2017-Apr-30 11:30N 34°14' E 134°59'611.9
2017-Apr-30 11:00N 34°08' E 134°60'244 9.5
2017-Apr-29 09:22N 35°12' E 139°46'410.3
2017-Apr-29 09:00N 35°16' E 139°46'511.0
2017-Apr-29 08:30N 35°21' E 139°42'510.2
2017-Apr-29 08:00N 35°25' E 139°45'510.8
2017-Apr-29 07:30N 35°29' E 139°50'510.6
2017-Apr-29 07:00N 35°33' E 139°54'610.6
2017-Apr-29 06:24N 35°38' E 139°59'7 0.2
2017-Apr-27 18:36N 35°32' E 139°55'212.6
2017-Apr-27 18:29N 35°31' E 139°53'612.4
2017-Apr-27 18:00N 35°26' E 139°49'612.4
2017-Apr-27 17:30N 35°21' E 139°45'611.8
2017-Apr-27 17:00N 35°15' E 139°47'239 9.0
2017-Apr-26 14:27N 34°27' E 135°01'1010.3
2017-Apr-26 13:30N 34°37' E 135°00'510.7
2017-Apr-26 13:00N 34°37' E 134°54'7 0.3
2017-Apr-25 13:23N 34°41' E 134°46'511.8
2017-Apr-25 12:59N 34°39' E 134°51'612.1
2017-Apr-25 12:30N 34°38' E 134°58'713.1
2017-Apr-25 12:00N 34°35' E 135°05'713.3
2017-Apr-25 11:30N 34°28' E 135°04'1413.5
2017-Apr-25 10:27N 34°15' E 134°59'612.8
2017-Apr-25 10:00N 34°09' E 135°00'20910.0
2017-Apr-24 13:08N 34°48' E 139°09'211.9
2017-Apr-24 12:58N 34°50' E 139°11'1811.2
2017-Apr-24 11:23N 35°01' E 139°28'611.5
2017-Apr-24 10:55N 35°04' E 139°34'512.0
2017-Apr-24 10:30N 35°06' E 139°39'611.9
2017-Apr-24 10:00N 35°10' E 139°44'611.6
2017-Apr-24 09:30N 35°16' E 139°46'612.4
2017-Apr-24 09:00N 35°21' E 139°42'611.3
2017-Apr-24 08:30N 35°26' E 139°46'612.1
2017-Apr-24 08:01N 35°30' E 139°51'1011.7
2017-Apr-24 07:09N 35°38' E 139°58'110.6
2017-Apr-24 07:00N 35°40' E 139°58'8 0.8
2017-Apr-23 20:53N 35°32' E 139°55'511.8
2017-Apr-23 20:27N 35°28' E 139°51'511.7
2017-Apr-23 20:00N 35°24' E 139°46'611.5
2017-Apr-23 19:30N 35°19' E 139°44'611.3
2017-Apr-23 19:00N 35°13' E 139°47'611.4
2017-Apr-23 18:29N 35°08' E 139°45'611.6
2017-Apr-23 18:00N 35°04' E 139°41'612.4
2017-Apr-23 17:30N 34°60' E 139°35'232 9.6
2017-Apr-22 17:20N 34°13' E 134°59'1412.6
2017-Apr-22 16:15N 34°27' E 135°01'412.7
2017-Apr-22 15:55N 34°31' E 135°02'512.6
2017-Apr-22 15:30N 34°36' E 135°02'713.3
2017-Apr-22 14:59N 34°37' E 134°54'2 0.2
2017-Apr-22 04:25N 34°39' E 134°52'410.3
2017-Apr-22 04:00N 34°38' E 134°57'5 9.4
2017-Apr-22 03:30N 34°37' E 135°02'510.0
2017-Apr-22 03:00N 34°37' E 135°09'1 1.2
2017-Apr-22 02:21N 34°37' E 135°09'0 0.0
2017-Apr-22 02:00N 34°37' E 135°09'4 8.4
2017-Apr-22 01:30N 34°33' E 135°08'2011.3
2017-Apr-21 23:44N 34°15' E 134°59'311.5
2017-Apr-21 23:30N 34°12' E 134°60'611.7
2017-Apr-21 22:59N 34°06' E 135°00'  
Track history (hours):
 
Tides and Currents Weather Stations Pressure Air Temp Water Temp Dewpoint Dewpoint Depression Visibility Wind Speed Wind Dir Waves Ship Positions

Shinkai Maru

Last reported at 2017-Apr-30 23:39 UTC. Time now 2017-May-01 02:31 UTC.
Position N 34°38' E 135°28'.

Length 76 m; draft 4.1 m.

Type: Cargo ship. MMSI: 431301346.

Date/timePositionNaut miles runAvg speedWind from/ knotsBaromVisibWave heightAir tempDewpointWater temp
2017-Apr-30 23:39N 34°38' E 135°28'0 0.3
2017-Apr-30 23:29N 34°38' E 135°28'1 1.5
2017-Apr-30 23:00N 34°39' E 135°27'3 6.0
2017-Apr-30 22:30N 34°38' E 135°23'2 2.6
2017-Apr-30 21:48N 34°37' E 135°22'0 0.1
2017-Apr-30 21:24N 34°37' E 135°22'0 0.0
2017-Apr-30 20:54N 34°37' E 135°22'0 0.0
2017-Apr-30 20:24N 34°37' E 135°22'0 0.1
2017-Apr-30 19:54N 34°37' E 135°22'0 0.0
2017-Apr-30 19:30N 34°37' E 135°22'0 0.0
2017-Apr-30 18:42N 34°37' E 135°22'0 0.0
2017-Apr-30 18:18N 34°37' E 135°22'0 0.0
2017-Apr-30 17:48N 34°37' E 135°22'0 0.0
2017-Apr-30 17:30N 34°37' E 135°22'0 0.0
2017-Apr-30 17:00N 34°37' E 135°22'0 0.0
2017-Apr-30 16:18N 34°37' E 135°22'0 0.0
2017-Apr-30 16:00N 34°37' E 135°22'0 0.0
2017-Apr-30 15:30N 34°37' E 135°22'0 0.0
2017-Apr-30 14:18N 34°37' E 135°22'5 6.0
2017-Apr-30 13:30N 34°34' E 135°17'612.1
2017-Apr-30 13:00N 34°29' E 135°12'612.2
2017-Apr-30 12:30N 34°25' E 135°07'713.0
2017-Apr-30 11:59N 34°20' E 135°02'612.6
2017-Apr-30 11:30N 34°14' E 134°59'611.9
2017-Apr-30 11:00N 34°08' E 134°60'244 9.5
2017-Apr-29 09:22N 35°12' E 139°46'410.3
2017-Apr-29 09:00N 35°16' E 139°46'511.0
2017-Apr-29 08:30N 35°21' E 139°42'510.2
2017-Apr-29 08:00N 35°25' E 139°45'510.8
2017-Apr-29 07:30N 35°29' E 139°50'510.6
2017-Apr-29 07:00N 35°33' E 139°54'610.6
2017-Apr-29 06:24N 35°38' E 139°59'7 0.2
2017-Apr-27 18:36N 35°32' E 139°55'212.6
2017-Apr-27 18:29N 35°31' E 139°53'612.4
2017-Apr-27 18:00N 35°26' E 139°49'612.4
2017-Apr-27 17:30N 35°21' E 139°45'611.8
2017-Apr-27 17:00N 35°15' E 139°47'239 9.0
2017-Apr-26 14:27N 34°27' E 135°01'1010.3
2017-Apr-26 13:30N 34°37' E 135°00'510.7
2017-Apr-26 13:00N 34°37' E 134°54'7 0.3
2017-Apr-25 13:23N 34°41' E 134°46'511.8
2017-Apr-25 12:59N 34°39' E 134°51'612.1
2017-Apr-25 12:30N 34°38' E 134°58'713.1
2017-Apr-25 12:00N 34°35' E 135°05'713.3
2017-Apr-25 11:30N 34°28' E 135°04'1413.5
2017-Apr-25 10:27N 34°15' E 134°59'612.8
2017-Apr-25 10:00N 34°09' E 135°00'20910.0
2017-Apr-24 13:08N 34°48' E 139°09'211.9
2017-Apr-24 12:58N 34°50' E 139°11'1811.2
2017-Apr-24 11:23N 35°01' E 139°28'611.5
2017-Apr-24 10:55N 35°04' E 139°34'512.0
2017-Apr-24 10:30N 35°06' E 139°39'611.9
2017-Apr-24 10:00N 35°10' E 139°44'611.6
2017-Apr-24 09:30N 35°16' E 139°46'612.4
2017-Apr-24 09:00N 35°21' E 139°42'611.3
2017-Apr-24 08:30N 35°26' E 139°46'612.1
2017-Apr-24 08:01N 35°30' E 139°51'1011.7
2017-Apr-24 07:09N 35°38' E 139°58'110.6
2017-Apr-24 07:00N 35°40' E 139°58'8 0.8
2017-Apr-23 20:53N 35°32' E 139°55'511.8
2017-Apr-23 20:27N 35°28' E 139°51'511.7
2017-Apr-23 20:00N 35°24' E 139°46'611.5
2017-Apr-23 19:30N 35°19' E 139°44'611.3
2017-Apr-23 19:00N 35°13' E 139°47'611.4
2017-Apr-23 18:29N 35°08' E 139°45'611.6
2017-Apr-23 18:00N 35°04' E 139°41'612.4
2017-Apr-23 17:30N 34°60' E 139°35'232 9.6
2017-Apr-22 17:20N 34°13' E 134°59'1412.6
2017-Apr-22 16:15N 34°27' E 135°01'412.7
2017-Apr-22 15:55N 34°31' E 135°02'512.6
2017-Apr-22 15:30N 34°36' E 135°02'713.3
2017-Apr-22 14:59N 34°37' E 134°54'2 0.2
2017-Apr-22 04:25N 34°39' E 134°52'410.3
2017-Apr-22 04:00N 34°38' E 134°57'5 9.4
2017-Apr-22 03:30N 34°37' E 135°02'510.0
2017-Apr-22 03:00N 34°37' E 135°09'1 1.2
2017-Apr-22 02:21N 34°37' E 135°09'0 0.0
2017-Apr-22 02:00N 34°37' E 135°09'4 8.4
2017-Apr-22 01:30N 34°33' E 135°08'2011.3
2017-Apr-21 23:44N 34°15' E 134°59'311.5
2017-Apr-21 23:30N 34°12' E 134°60'611.7
2017-Apr-21 22:59N 34°06' E 135°00'  

Dump ship's entire track history